Indian Creek, Louisiana
Current Conditions -  °F | °C
As of 8:53 PM on Sunday 21 Dec 2014 (Local Time) from KAEX Reporting Station
Overcast Overcast  
Wind Chill: 49°   Ceiling: 400
Heat Index: 49°   Visibility: 7mi
Dew Point: 48°   Wind: 3mph
Humidity: 97%   Direction: 170°S
Pressure: 29.94"   Gusts: NA
Location:  31.1516°N, 92.535°W
Report Text: KAEX 220253Z 17003KT 7SM OVC004 09/09 A2994 RMK AO2 SLP144 T00940089 58010
Loading
Personal Weather Stations






























Interactive Weather Map New forecast layout! Learn more

10-Day Weather Forecast

Advertisements
Track Severe Weather on mobile